Time;durP1;ratioP1;P1;durP2;ratioP2;P2;SDS_P1;SDS_P2;PMS_P1;PMS_P2;Temp;Humidity;BMP_temperature;BMP_pressure;BME280_temperature;BME280_humidity;BME280_pressure;Samples;Min_cycle;Max_cycle;Signal;HPM_P1;HPM_P2
2023/06/08 00:01:25;;;;;;;7.30;6.60;;;;;;;15.24;70.20;100714.89;104103;268;38262;-73
2023/06/08 00:04:05;;;;;;;6.10;5.40;;;;;;;15.22;70.19;100716.42;104187;264;38514;-72
2023/06/08 00:06:44;;;;;;;7.00;6.40;;;;;;;15.18;70.49;100718.37;104170;275;39456;-73
2023/06/08 00:09:19;;;;;;;;;;;;;;;15.15;70.44;100718.20;104179;276;38412;-73
2023/06/08 00:11:55;;;;;;;7.20;6.00;;;;;;;15.05;70.70;100723.80;104184;275;38336;-73
2023/06/08 00:14:28;;;;;;;8.80;6.30;;;;;;;15.03;70.77;100731.64;104151;275;38741;-71
2023/06/08 00:17:03;;;;;;;8.20;6.60;;;;;;;14.98;70.83;100732.74;104153;275;38548;-71
2023/06/08 00:19:38;;;;;;;9.50;6.40;;;;;;;14.94;71.02;100732.63;104123;275;38287;-71
2023/06/08 00:22:12;;;;;;;7.10;5.80;;;;;;;14.87;70.85;100733.13;104033;275;175764;-71
2023/06/08 00:24:47;;;;;;;8.50;5.60;;;;;;;14.84;71.08;100731.02;104148;275;39544;-71
2023/06/08 00:27:27;;;;;;;7.40;5.50;;;;;;;14.81;71.32;100730.11;104160;275;38230;-71
2023/06/08 00:30:01;;;;;;;6.70;5.80;;;;;;;14.78;71.38;100735.34;104181;275;38989;-71
2023/06/08 00:32:35;;;;;;;6.90;6.20;;;;;;;14.76;71.63;100736.86;104137;275;38465;-71
2023/06/08 00:35:11;;;;;;;8.10;6.70;;;;;;;14.73;71.76;100731.91;104143;275;174984;-72
2023/06/08 00:37:45;;;;;;;9.00;6.40;;;;;;;14.69;71.87;100732.45;104223;275;39635;-72
2023/06/08 00:40:20;;;;;;;12.30;6.60;;;;;;;14.65;71.77;100731.06;104224;275;39000;-74
2023/06/08 00:42:55;;;;;;;6.40;5.60;;;;;;;14.62;72.02;100728.27;104047;276;39436;-74
2023/06/08 00:45:29;;;;;;;12.20;6.70;;;;;;;14.57;72.04;100728.83;104168;275;38466;-73
2023/06/08 00:48:03;;;;;;;10.30;6.30;;;;;;;14.54;72.07;100730.94;104192;275;39656;-73
2023/06/08 00:50:37;;;;;;;7.40;6.50;;;;;;;14.49;72.10;100728.34;104175;276;39370;-70
2023/06/08 00:53:12;;;;;;;8.50;6.50;;;;;;;14.44;72.32;100726.27;104133;276;38727;-70
2023/06/08 00:55:46;;;;;;;11.90;6.50;;;;;;;14.40;72.47;100722.26;103385;275;904001;-71
2023/06/08 00:58:23;;;;;;;7.90;6.30;;;;;;;14.37;72.48;100726.81;104152;275;38290;-71
2023/06/08 01:00:59;;;;;;;7.30;6.50;;;;;;;14.33;72.64;100725.04;104185;275;39380;-73
2023/06/08 01:03:38;;;;;;;9.50;7.40;;;;;;;14.29;72.91;100725.05;104181;275;38771;-73
2023/06/08 01:06:12;;;;;;;;;;;;;;;14.25;73.23;100722.12;104156;276;38469;-73
2023/06/08 01:08:57;;;;;;;7.80;6.30;;;;;;;14.14;73.23;100720.53;104162;275;38380;-73
2023/06/08 01:12:00;;;;;;;8.00;6.50;;;;;;;14.11;73.29;100721.88;104143;275;38259;-72
2023/06/08 01:14:43;;;;;;;8.40;6.30;;;;;;;14.08;73.51;100722.17;104057;276;39481;-72
2023/06/08 01:17:18;;;;;;;12.90;7.00;;;;;;;14.06;73.60;100723.16;104026;275;39579;-73
2023/06/08 01:20:08;;;;;;;10.30;7.10;;;;;;;14.06;73.70;100718.77;104142;275;38542;-70
2023/06/08 01:23:03;;;;;;;12.40;6.70;;;;;;;14.02;73.64;100716.54;104151;275;38481;-70
2023/06/08 01:25:37;;;;;;;11.30;6.70;;;;;;;13.94;73.79;100713.55;104200;276;38468;-70
2023/06/08 01:28:15;;;;;;;7.30;6.10;;;;;;;13.87;73.63;100712.11;104163;275;38259;-70
2023/06/08 01:30:50;;;;;;;7.20;6.40;;;;;;;13.83;73.70;100718.10;104178;275;38698;-71
2023/06/08 01:33:25;;;;;;;8.00;6.70;;;;;;;13.79;73.99;100721.63;104134;276;38368;-71
2023/06/08 01:36:04;;;;;;;7.80;6.60;;;;;;;13.77;74.01;100723.13;104154;276;38941;-72
2023/06/08 01:38:46;;;;;;;10.20;7.70;;;;;;;13.71;74.04;100724.08;104091;275;38511;-73
2023/06/08 01:41:24;;;;;;;12.50;7.40;;;;;;;13.68;74.39;100721.74;104042;276;172351;-73
2023/06/08 01:44:04;;;;;;;9.30;7.10;;;;;;;13.68;74.78;100724.20;104001;276;39652;-72
2023/06/08 01:46:38;;;;;;;9.20;6.50;;;;;;;13.67;74.68;100727.59;104155;275;38496;-72
2023/06/08 01:49:12;;;;;;;10.80;8.00;;;;;;;13.65;74.71;100728.73;104122;275;39815;-72
2023/06/08 01:51:47;;;;;;;10.40;7.90;;;;;;;13.60;74.69;100730.52;104126;276;38263;-73
2023/06/08 01:54:21;;;;;;;8.80;7.70;;;;;;;13.55;74.82;100724.95;104167;275;39396;-73
2023/06/08 01:56:55;;;;;;;7.80;7.00;;;;;;;13.50;74.84;100728.52;104146;275;38431;-73
2023/06/08 01:59:29;;;;;;;9.20;7.10;;;;;;;13.48;75.10;100723.91;104175;276;38239;-73
2023/06/08 02:02:04;;;;;;;9.10;7.60;;;;;;;13.45;75.02;100729.13;104175;275;38521;-74
2023/06/08 02:04:39;;;;;;;10.60;7.40;;;;;;;13.43;75.22;100729.36;104182;275;39519;-71
2023/06/08 02:07:13;;;;;;;11.30;8.00;;;;;;;13.40;75.29;100729.83;104118;275;39400;-69
2023/06/08 02:09:47;;;;;;;8.20;7.20;;;;;;;13.36;75.48;100729.85;104103;275;175069;-72
2023/06/08 02:12:21;;;;;;;7.60;6.80;;;;;;;13.32;75.52;100726.17;104125;275;38615;-72
2023/06/08 02:14:58;;;;;;;10.20;7.10;;;;;;;13.30;75.69;100729.07;104141;275;39431;-71
2023/06/08 02:17:35;;;;;;;8.00;7.20;;;;;;;13.29;75.94;100728.59;104120;275;38748;-72
2023/06/08 02:20:10;;;;;;;10.20;7.40;;;;;;;13.29;76.08;100728.23;104177;276;38410;-70
2023/06/08 02:22:45;;;;;;;9.10;7.30;;;;;;;13.30;76.26;100730.63;104136;275;38519;-71
2023/06/08 02:25:19;;;;;;;8.40;7.20;;;;;;;13.29;76.40;100735.24;104109;275;38360;-71
2023/06/08 02:27:53;;;;;;;7.20;6.50;;;;;;;13.25;76.32;100736.63;104162;275;38696;-71
2023/06/08 02:30:30;;;;;;;8.70;6.30;;;;;;;13.23;76.56;100732.52;104186;275;39414;-70
2023/06/08 02:33:04;;;;;;;8.60;7.30;;;;;;;13.22;76.45;100732.19;104150;275;38270;-70
2023/06/08 02:35:39;;;;;;;7.70;6.90;;;;;;;13.25;76.88;100732.98;104202;275;38479;-72
2023/06/08 02:38:12;;;;;;;11.40;7.80;;;;;;;13.34;77.34;100733.08;104145;275;38433;-72
2023/06/08 02:40:47;;;;;;;8.00;7.20;;;;;;;13.41;77.37;100735.05;104077;276;188377;-70
2023/06/08 02:43:22;;;;;;;8.00;7.20;;;;;;;13.48;77.58;100730.91;104203;275;38247;-71
2023/06/08 02:45:56;;;;;;;7.00;6.30;;;;;;;13.54;77.72;100732.21;104172;275;38812;-70
2023/06/08 02:48:31;;;;;;;9.00;6.90;;;;;;;13.60;77.80;100730.91;104150;276;38620;-70
2023/06/08 02:51:06;;;;;;;8.30;7.50;;;;;;;13.66;77.74;100725.90;104160;275;39981;-73
2023/06/08 02:53:43;;;;;;;9.00;7.90;;;;;;;13.70;77.84;100723.42;104127;275;39694;-71
2023/06/08 02:56:16;;;;;;;8.50;6.90;;;;;;;13.75;77.96;100725.11;104118;275;39658;-69
2023/06/08 02:58:52;;;;;;;8.00;6.90;;;;;;;13.77;77.75;100727.14;104056;275;175021;-71
2023/06/08 03:01:30;;;;;;;7.50;6.80;;;;;;;13.79;77.77;100727.39;104134;275;39641;-72
2023/06/08 03:04:04;;;;;;;8.80;7.80;;;;;;;13.85;78.17;100731.49;104044;275;39911;-72
2023/06/08 03:06:38;;;;;;;10.90;7.90;;;;;;;13.92;78.25;100730.84;104106;275;38274;-70
2023/06/08 03:09:12;;;;;;;9.50;8.10;;;;;;;13.99;78.25;100735.45;104040;276;38258;-72
2023/06/08 03:11:46;;;;;;;10.10;7.50;;;;;;;14.03;78.18;100734.55;104136;275;39614;-70
2023/06/08 03:14:20;;;;;;;8.40;7.60;;;;;;;14.04;77.80;100736.43;104169;275;38792;-73
2023/06/08 03:17:01;;;;;;;8.30;6.50;;;;;;;14.07;78.03;100738.73;104132;275;39019;-74
2023/06/08 03:19:35;;;;;;;8.90;7.10;;;;;;;14.16;78.13;100741.30;103409;276;905716;-73
2023/06/08 03:22:10;;;;;;;8.60;7.10;;;;;;;14.24;78.20;100743.42;103872;275;405713;-74
2023/06/08 03:24:48;;;;;;;8.10;7.20;;;;;;;14.33;78.46;100740.50;104185;275;38227;-71
2023/06/08 03:27:22;;;;;;;9.20;7.30;;;;;;;14.44;78.40;100742.08;104117;275;38339;-70
2023/06/08 03:29:56;;;;;;;8.00;6.60;;;;;;;14.53;78.31;100738.51;104213;275;38257;-71
2023/06/08 03:32:32;;;;;;;8.80;6.60;;;;;;;14.66;78.08;100744.51;104218;276;38522;-71
2023/06/08 03:35:11;;;;;;;6.90;6.20;;;;;;;14.95;78.25;100742.25;104197;275;38742;-71
2023/06/08 03:37:46;;;;;;;8.90;7.50;;;;;;;15.48;78.82;100738.83;104172;274;39632;-73
2023/06/08 03:40:20;;;;;;;7.90;6.90;;;;;;;16.11;78.39;100736.48;104158;274;38385;-74
2023/06/08 03:42:54;;;;;;;7.80;7.10;;;;;;;16.77;77.45;100740.52;104002;276;40526;-74
2023/06/08 03:45:29;;;;;;;7.10;6.00;;;;;;;17.49;75.74;100742.62;104077;276;39578;-73
2023/06/08 03:48:03;;;;;;;8.40;6.60;;;;;;;18.26;74.53;100740.27;103991;276;38042;-72
2023/06/08 03:50:38;;;;;;;7.90;6.90;;;;;;;19.02;72.62;100737.95;104060;276;38640;-70
2023/06/08 03:53:13;;;;;;;7.90;6.40;;;;;;;19.76;69.39;100740.29;104104;276;38466;-71
2023/06/08 03:55:47;;;;;;;6.50;5.90;;;;;;;20.43;67.05;100742.61;104027;276;38320;-69
2023/06/08 03:58:23;;;;;;;7.40;6.00;;;;;;;21.09;64.86;100744.02;104075;275;39664;-71
2023/06/08 04:00:57;;;;;;;9.90;6.50;;;;;;;21.78;62.41;100739.80;104141;275;38778;-71
2023/06/08 04:03:31;;;;;;;6.40;5.80;;;;;;;22.43;59.99;100738.84;104119;275;39498;-71
2023/06/08 04:06:08;;;;;;;7.00;6.30;;;;;;;22.99;57.00;100734.94;104166;275;38617;-71
2023/06/08 04:08:44;;;;;;;7.50;5.50;;;;;;;23.49;54.34;100730.15;104151;275;38348;-72
2023/06/08 04:11:20;;;;;;;6.00;5.40;;;;;;;23.96;53.03;100728.82;104195;275;38244;-74
2023/06/08 04:13:56;;;;;;;6.20;5.60;;;;;;;24.52;51.36;100732.77;104191;275;38278;-71
2023/06/08 04:16:30;;;;;;;6.50;5.50;;;;;;;25.01;49.20;100734.19;104177;276;39469;-69
2023/06/08 04:19:09;;;;;;;6.40;5.80;;;;;;;25.40;47.80;100734.98;104190;275;39410;-71
2023/06/08 04:21:44;;;;;;;7.30;5.80;;;;;;;25.47;46.95;100737.33;104132;275;39359;-71
2023/06/08 04:24:21;;;;;;;6.20;5.70;;;;;;;25.03;46.25;100736.86;104158;264;38370;-73
2023/06/08 04:26:56;;;;;;;7.30;5.90;;;;;;;24.39;46.46;100736.42;104129;275;38380;-73
2023/06/08 04:29:31;;;;;;;5.90;5.30;;;;;;;23.82;47.08;100740.25;104143;275;38470;-73
2023/06/08 04:32:06;;;;;;;6.10;5.20;;;;;;;23.33;47.37;100744.70;104149;275;38825;-73
2023/06/08 04:34:41;;;;;;;6.20;5.60;;;;;;;22.84;48.10;100750.06;104120;275;38221;-72
2023/06/08 04:37:16;;;;;;;7.00;5.30;;;;;;;22.47;48.79;100747.05;104188;275;39383;-72
2023/06/08 04:39:50;;;;;;;7.20;5.40;;;;;;;22.09;49.47;100750.50;104218;275;38396;-71
2023/06/08 04:42:27;;;;;;;7.60;5.90;;;;;;;21.78;50.58;100755.42;104138;275;38443;-71
2023/06/08 04:45:03;;;;;;;6.20;5.20;;;;;;;21.64;51.09;100752.65;104167;275;38731;-71
2023/06/08 04:47:37;;;;;;;5.30;4.90;;;;;;;21.55;51.13;100758.28;104179;276;39342;-72
2023/06/08 04:50:13;;;;;;;6.20;5.20;;;;;;;21.49;51.22;100759.44;104180;275;38405;-70
2023/06/08 04:52:47;;;;;;;5.90;5.00;;;;;;;21.47;51.34;100758.89;104052;276;39128;-70
2023/06/08 04:55:23;;;;;;;6.10;5.30;;;;;;;21.46;51.64;100756.32;104127;276;39452;-71
2023/06/08 04:57:57;;;;;;;5.80;5.20;;;;;;;21.64;51.60;100755.94;104161;275;40071;-70
2023/06/08 05:00:32;;;;;;;6.20;5.10;;;;;;;22.15;51.99;100750.52;104083;276;174485;-71
2023/06/08 05:03:08;;;;;;;7.60;5.30;;;;;;;23.12;51.54;100751.23;104184;275;38465;-71
2023/06/08 05:05:43;;;;;;;5.70;5.00;;;;;;;24.07;49.68;100748.77;104186;275;38224;-70
2023/06/08 05:08:26;;;;;;;6.30;5.00;;;;;;;25.12;48.27;100749.95;104178;276;38487;-71
2023/06/08 05:11:00;;;;;;;5.90;5.30;;;;;;;25.95;45.32;100749.98;104212;275;38255;-71
2023/06/08 05:13:37;;;;;;;6.30;4.80;;;;;;;26.66;43.98;100745.63;104161;275;38326;-70
2023/06/08 05:16:15;;;;;;;7.80;5.20;;;;;;;27.44;41.90;100748.84;104178;275;39115;-73
2023/06/08 05:18:51;;;;;;;5.90;5.10;;;;;;;27.93;40.28;100752.58;104193;275;38383;-72
2023/06/08 05:21:25;;;;;;;7.40;5.60;;;;;;;28.44;39.06;100749.67;104049;277;38234;-73
2023/06/08 05:24:00;;;;;;;5.40;4.90;;;;;;;28.98;37.62;100751.12;104167;275;38285;-70
2023/06/08 05:26:35;;;;;;;8.90;5.50;;;;;;;29.36;36.69;100755.18;104164;275;39409;-70
2023/06/08 05:29:13;;;;;;;6.40;4.70;;;;;;;29.71;35.86;100756.36;103995;276;38483;-73
2023/06/08 05:31:49;;;;;;;;;;;;;;;29.99;35.10;100756.54;104202;275;38887;-72
2023/06/08 05:34:23;;;;;;;6.60;4.80;;;;;;;30.33;34.74;100755.17;104195;275;38463;-70
2023/06/08 05:36:58;;;;;;;5.90;4.70;;;;;;;30.71;33.86;100750.70;104175;276;38226;-70
2023/06/08 05:39:36;;;;;;;5.00;4.40;;;;;;;31.03;33.47;100749.14;104117;275;174127;-73
2023/06/08 05:42:10;;;;;;;;;;;;;;;31.40;32.35;100746.96;104191;275;38224;-73
2023/06/08 05:44:45;;;;;;;4.70;4.20;;;;;;;31.60;32.17;100744.06;104063;277;39078;-71
2023/06/08 05:47:19;;;;;;;4.20;3.80;;;;;;;31.81;31.32;100744.80;104158;275;40066;-74
2023/06/08 05:49:55;;;;;;;4.60;3.80;;;;;;;31.80;30.68;100746.17;104178;275;38860;-71
2023/06/08 05:52:32;;;;;;;3.80;3.50;;;;;;;31.98;30.66;100743.27;104121;275;39723;-72
2023/06/08 05:55:08;;;;;;;5.90;4.30;;;;;;;32.36;30.12;100748.48;104166;275;38833;-71
2023/06/08 05:57:43;;;;;;;5.10;4.00;;;;;;;32.47;29.74;100746.20;104211;275;38218;-70
2023/06/08 06:00:22;;;;;;;5.80;4.30;;;;;;;32.65;29.28;100744.02;104170;275;39769;-71
2023/06/08 06:02:56;;;;;;;6.30;4.20;;;;;;;32.69;29.03;100742.52;104188;275;38259;-72
2023/06/08 06:05:33;;;;;;;4.80;4.30;;;;;;;32.73;29.17;100749.16;104158;275;39571;-72
2023/06/08 06:08:07;;;;;;;5.10;4.60;;;;;;;33.07;28.96;100750.09;104019;277;38477;-72
2023/06/08 06:10:42;;;;;;;5.50;4.30;;;;;;;33.54;28.29;100748.99;104166;275;39621;-72
2023/06/08 06:13:16;;;;;;;4.90;4.20;;;;;;;33.84;28.01;100748.34;104134;275;39451;-73
2023/06/08 06:15:50;;;;;;;4.10;3.70;;;;;;;34.06;27.74;100744.98;104158;275;38496;-73
2023/06/08 06:18:24;;;;;;;4.40;4.00;;;;;;;34.20;27.45;100745.09;104155;275;39788;-72
2023/06/08 06:20:59;;;;;;;4.40;4.00;;;;;;;34.26;26.81;100747.35;104156;275;38516;-72
2023/06/08 06:23:34;;;;;;;4.00;3.60;;;;;;;34.12;26.70;100747.19;104185;276;38233;-77
2023/06/08 06:26:11;;;;;;;4.70;4.00;;;;;;;34.10;26.32;100752.36;104169;276;38748;-72
2023/06/08 06:28:47;;;;;;;4.80;3.60;;;;;;;33.94;26.33;100749.30;104213;276;38344;-74
2023/06/08 06:31:21;;;;;;;4.00;3.60;;;;;;;34.10;26.63;100747.88;104223;275;38298;-75
2023/06/08 06:33:56;;;;;;;5.60;4.10;;;;;;;34.43;26.29;100745.91;104114;275;39209;-75
2023/06/08 06:36:30;;;;;;;6.20;4.10;;;;;;;34.46;25.96;100736.94;104241;275;38277;-74
2023/06/08 06:39:05;;;;;;;5.00;3.80;;;;;;;34.60;25.72;100734.63;104326;275;39845;-75
2023/06/08 06:41:41;;;;;;;3.70;3.40;;;;;;;34.55;25.50;100735.42;104073;276;38419;-73
2023/06/08 06:44:17;;;;;;;3.50;3.20;;;;;;;34.54;25.19;100732.08;104061;277;39668;-73
2023/06/08 06:46:55;;;;;;;3.40;3.10;;;;;;;34.65;25.53;100733.09;104226;276;39401;-73
2023/06/08 06:49:36;;;;;;;4.90;3.50;;;;;;;34.70;25.02;100733.30;104181;275;38420;-75
2023/06/08 06:52:11;;;;;;;4.30;2.90;;;;;;;34.61;25.16;100734.41;104244;276;39415;-78
2023/06/08 06:54:46;;;;;;;4.10;3.30;;;;;;;34.60;24.77;100737.19;103358;276;901807;-77
2023/06/08 06:57:21;;;;;;;3.30;3.00;;;;;;;34.66;24.84;100732.83;104126;276;38266;-77
2023/06/08 07:00:03;;;;;;;2.80;2.60;;;;;;;34.75;24.94;100732.48;104142;276;38240;-73
2023/06/08 07:02:43;;;;;;;4.40;3.10;;;;;;;34.98;25.03;100734.02;104044;276;39481;-72
2023/06/08 07:05:17;;;;;;;4.80;3.30;;;;;;;35.42;24.73;100739.68;104145;276;39663;-79
2023/06/08 07:07:54;;;;;;;3.30;3.10;;;;;;;35.52;24.15;100738.58;104015;276;38839;-78
2023/06/08 07:10:30;;;;;;;3.80;3.20;;;;;;;35.67;23.96;100739.42;104290;275;39416;-77
2023/06/08 07:13:06;;;;;;;4.50;2.90;;;;;;;35.64;23.71;100740.94;104125;276;39442;-77
2023/06/08 07:15:41;;;;;;;2.90;2.60;;;;;;;35.56;23.76;100736.77;104239;276;40134;-77
2023/06/08 07:18:16;;;;;;;3.70;3.40;;;;;;;35.46;23.78;100736.73;104108;275;39862;-77
2023/06/08 07:20:53;;;;;;;3.70;3.00;;;;;;;35.52;24.32;100732.42;104415;276;39431;-79
2023/06/08 07:23:28;;;;;;;3.00;2.70;;;;;;;35.64;24.03;100729.46;104406;276;38277;-79
2023/06/08 07:26:06;;;;;;;3.40;2.70;;;;;;;35.89;23.71;100727.45;104394;275;39550;-79
2023/06/08 07:28:41;;;;;;;3.50;3.00;;;;;;;36.09;23.48;100727.51;104167;277;38396;-73
2023/06/08 07:31:15;;;;;;;3.80;2.90;;;;;;;36.21;23.08;100728.58;104194;275;38362;-73
2023/06/08 07:33:57;;;;;;;4.00;3.00;;;;;;;36.36;23.02;100728.61;104120;275;173546;-75
2023/06/08 07:36:32;;;;;;;3.30;2.80;;;;;;;36.24;22.93;100723.29;104081;275;39271;-73
2023/06/08 07:39:13;;;;;;;3.00;2.80;;;;;;;36.35;22.35;100724.39;104231;275;38453;-76
2023/06/08 07:41:55;;;;;;;4.10;2.90;;;;;;;36.36;22.05;100726.10;104035;275;40454;-71
2023/06/08 07:44:32;;;;;;;3.20;2.80;;;;;;;36.54;22.32;100725.19;104221;275;39604;-70
2023/06/08 07:47:10;;;;;;;4.40;2.80;;;;;;;36.65;22.15;100722.02;104196;275;38208;-71
2023/06/08 07:49:44;;;;;;;;;;;;;;;36.58;22.02;100719.95;104210;275;39097;-70
2023/06/08 07:52:21;;;;;;;3.70;2.90;;;;;;;36.20;22.15;100719.61;104197;275;38431;-70
2023/06/08 07:54:57;;;;;;;3.70;2.60;;;;;;;36.40;22.17;100720.80;104185;275;38503;-72
2023/06/08 07:57:36;;;;;;;3.60;2.80;;;;;;;36.62;21.92;100723.48;104314;276;39364;-76
2023/06/08 08:00:16;;;;;;;4.20;2.60;;;;;;;36.67;21.93;100720.05;104250;276;38249;-78
2023/06/08 08:02:55;;;;;;;2.90;2.60;;;;;;;36.74;21.77;100724.45;104383;275;38247;-78
2023/06/08 08:05:29;;;;;;;4.70;2.40;;;;;;;36.89;21.62;100723.29;104270;275;38475;-70
2023/06/08 08:08:03;;;;;;;3.00;2.60;;;;;;;37.02;21.17;100719.37;104155;276;40301;-71
2023/06/08 08:10:37;;;;;;;2.70;2.40;;;;;;;37.21;21.44;100721.75;104076;275;173815;-69
2023/06/08 08:13:12;;;;;;;3.00;2.80;;;;;;;36.99;20.92;100722.61;104138;275;39424;-69
2023/06/08 08:15:46;;;;;;;3.00;2.40;;;;;;;36.90;21.65;100721.94;104087;275;173851;-69
2023/06/08 08:18:22;;;;;;;4.70;3.10;;;;;;;37.09;20.82;100727.31;104175;275;38691;-70
2023/06/08 08:21:06;;;;;;;3.40;3.00;;;;;;;37.03;21.13;100728.52;104231;275;38243;-78
2023/06/08 08:23:43;;;;;;;4.00;2.80;;;;;;;37.15;20.99;100723.95;104163;275;173821;-75
2023/06/08 08:26:17;;;;;;;3.50;2.70;;;;;;;37.47;21.14;100724.65;104168;276;38433;-76
2023/06/08 08:28:53;;;;;;;3.00;2.70;;;;;;;37.68;20.04;100722.27;104067;276;39419;-75
2023/06/08 08:31:27;;;;;;;4.50;2.90;;;;;;;37.72;20.20;100717.69;104134;276;39180;-75
2023/06/08 08:34:02;;;;;;;4.30;3.10;;;;;;;37.70;20.13;100715.50;104229;275;38564;-77
2023/06/08 08:36:37;;;;;;;5.10;3.00;;;;;;;37.62;19.77;100715.58;104313;276;39502;-78
2023/06/08 08:39:14;;;;;;;5.50;2.80;;;;;;;37.33;19.94;100714.51;104282;275;39391;-76
2023/06/08 08:41:48;;;;;;;3.60;2.40;;;;;;;37.24;20.05;100716.01;104289;275;38510;-75
2023/06/08 08:44:24;;;;;;;3.00;2.60;;;;;;;37.44;20.12;100715.54;103902;276;38602;-76
2023/06/08 08:47:02;;;;;;;3.40;2.80;;;;;;;37.56;20.18;100715.20;104230;275;38253;-76
2023/06/08 08:49:40;;;;;;;5.60;2.70;;;;;;;37.37;19.92;100709.67;104165;275;38286;-75
2023/06/08 08:52:19;;;;;;;4.30;3.00;;;;;;;37.26;20.24;100705.08;104242;275;38276;-75
2023/06/08 08:54:55;;;;;;;4.60;2.60;;;;;;;37.32;20.48;100703.91;104197;275;38956;-78
2023/06/08 08:57:31;;;;;;;3.10;2.70;;;;;;;37.50;20.22;100702.02;104201;275;39586;-74
2023/06/08 09:00:13;;;;;;;3.30;2.90;;;;;;;37.45;19.93;100707.86;104172;275;38566;-76
2023/06/08 09:02:49;;;;;;;3.40;3.10;;;;;;;37.27;20.09;100703.14;104152;275;39422;-75
2023/06/08 09:05:27;;;;;;;7.00;3.30;;;;;;;37.08;20.84;100696.60;104114;276;38803;-78
2023/06/08 09:08:05;;;;;;;3.20;2.60;;;;;;;37.04;20.90;100698.07;104186;275;38259;-77
2023/06/08 09:10:46;;;;;;;3.90;2.80;;;;;;;37.02;20.64;100695.27;104251;276;38226;-77
2023/06/08 09:13:25;;;;;;;3.50;3.00;;;;;;;36.72;20.79;100692.02;104100;276;38498;-76
2023/06/08 09:16:10;;;;;;;8.30;3.20;;;;;;;36.39;21.17;100686.10;104217;275;39424;-76
2023/06/08 09:18:44;;;;;;;7.30;2.60;;;;;;;35.96;21.71;100685.66;104243;275;38421;-76
2023/06/08 09:21:27;;;;;;;7.00;2.90;;;;;;;35.62;21.78;100683.64;104229;275;38856;-75
2023/06/08 09:24:12;;;;;;;2.90;2.60;;;;;;;35.07;21.73;100691.60;104219;275;38899;-76
2023/06/08 09:26:51;;;;;;;4.80;2.70;;;;;;;34.44;22.29;100685.91;104230;275;38246;-76
2023/06/08 09:29:40;;;;;;;5.20;2.90;;;;;;;33.93;23.23;100688.41;104245;276;38312;-75
2023/06/08 09:32:17;;;;;;;;;;;;;;;33.62;23.63;100687.17;104229;275;38693;-68
2023/06/08 09:34:58;;;;;;;3.90;2.60;;;;;;;33.24;24.19;100678.23;104054;276;38230;-71
2023/06/08 09:37:36;;;;;;;3.00;2.60;;;;;;;32.83;24.14;100678.63;103918;275;39441;-70
2023/06/08 09:40:22;;;;;;;3.60;2.80;;;;;;;32.35;24.94;100675.00;104176;276;38232;-70
2023/06/08 09:43:01;;;;;;;4.40;2.80;;;;;;;32.16;25.10;100675.30;104004;276;174176;-71
2023/06/08 09:45:45;;;;;;;5.90;3.00;;;;;;;32.01;25.42;100672.54;104049;276;38493;-68
2023/06/08 09:48:38;;;;;;;2.90;2.60;;;;;;;31.86;25.54;100664.80;104144;275;40626;-69
2023/06/08 09:51:19;;;;;;;4.20;3.00;;;;;;;31.65;25.56;100670.86;104046;275;174213;-68
2023/06/08 09:53:57;;;;;;;4.00;2.70;;;;;;;31.54;25.73;100671.48;104189;275;39817;-68
2023/06/08 09:56:32;;;;;;;5.10;3.00;;;;;;;31.35;25.98;100664.70;104127;275;38221;-70
2023/06/08 09:59:13;;;;;;;5.70;3.00;;;;;;;31.19;25.91;100665.64;104162;275;39240;-69
2023/06/08 10:01:57;;;;;;;3.90;3.00;;;;;;;31.09;26.41;100659.71;104132;276;38549;-68
2023/06/08 10:04:36;;;;;;;4.80;2.80;;;;;;;31.06;26.48;100663.73;103905;276;38432;-72
2023/06/08 10:07:12;;;;;;;3.20;2.70;;;;;;;31.00;26.66;100657.44;104172;275;39393;-71
2023/06/08 10:09:54;;;;;;;4.90;2.90;;;;;;;30.91;26.70;100657.89;104165;275;38549;-69
2023/06/08 10:12:31;;;;;;;5.10;2.80;;;;;;;30.79;27.11;100651.26;104156;276;38266;-74
2023/06/08 10:15:09;;;;;;;5.50;2.60;;;;;;;30.79;27.04;100653.30;104163;275;38887;-74
2023/06/08 10:17:49;;;;;;;4.10;2.90;;;;;;;30.61;27.03;100646.95;104163;275;39942;-68
2023/06/08 10:20:23;;;;;;;5.30;3.10;;;;;;;30.52;27.46;100644.00;104198;276;38560;-71
2023/06/08 10:22:59;;;;;;;3.10;2.40;;;;;;;30.51;27.53;100647.80;103608;275;906865;-76
2023/06/08 10:25:34;;;;;;;4.70;2.60;;;;;;;30.39;27.38;100649.75;104206;275;39439;-75
2023/06/08 10:28:11;;;;;;;5.00;3.20;;;;;;;30.25;27.51;100644.14;104164;275;38432;-76
2023/06/08 10:30:45;;;;;;;3.10;2.80;;;;;;;30.20;27.82;100638.64;104177;275;38255;-73
2023/06/08 10:33:25;;;;;;;4.80;3.00;;;;;;;30.19;27.94;100630.89;104156;275;38227;-67
2023/06/08 10:36:11;;;;;;;6.60;2.70;;;;;;;30.06;27.51;100631.75;104218;275;38444;-70
2023/06/08 10:38:59;;;;;;;3.60;2.70;;;;;;;29.88;27.86;100634.47;104172;275;38309;-69
2023/06/08 10:41:44;;;;;;;6.10;2.60;;;;;;;29.70;27.74;100629.55;104136;276;38265;-68
2023/06/08 10:44:41;;;;;;;5.90;2.70;;;;;;;29.62;28.02;100621.56;104133;275;38702;-67
2023/06/08 10:47:26;;;;;;;3.60;2.90;;;;;;;29.77;27.92;100629.03;104094;264;40369;-68
2023/06/08 10:50:06;;;;;;;5.40;2.70;;;;;;;29.81;27.71;100630.54;104180;275;39053;-74
2023/06/08 10:52:48;;;;;;;4.30;3.30;;;;;;;29.80;27.81;100623.99;104056;276;38616;-69
2023/06/08 10:55:28;;;;;;;6.20;3.00;;;;;;;29.76;27.94;100619.94;104179;275;38230;-69
2023/06/08 10:58:16;;;;;;;4.30;2.60;;;;;;;29.80;28.16;100618.23;104051;275;38999;-71
2023/06/08 11:00:53;;;;;;;5.60;3.20;;;;;;;29.84;27.92;100614.09;104185;275;38612;-69
2023/06/08 11:03:27;;;;;;;5.10;2.90;;;;;;;29.93;28.50;100617.17;104126;275;38690;-69
2023/06/08 11:06:01;;;;;;;4.50;2.80;;;;;;;30.06;28.31;100616.89;104219;275;38533;-69
2023/06/08 11:08:40;;;;;;;4.70;3.00;;;;;;;30.01;27.80;100612.23;104161;275;39785;-68
2023/06/08 11:11:14;;;;;;;5.20;3.00;;;;;;;29.96;28.03;100609.93;104150;275;38582;-69
2023/06/08 11:13:50;;;;;;;2.70;2.50;;;;;;;29.76;28.27;100608.42;104141;276;38815;-69
2023/06/08 11:16:24;;;;;;;5.20;2.60;;;;;;;29.51;28.01;100608.44;104117;275;39632;-70
2023/06/08 11:18:58;;;;;;;5.50;2.90;;;;;;;29.44;28.22;100607.29;104146;276;39035;-70
2023/06/08 11:21:39;;;;;;;5.40;3.90;;;;;;;29.41;28.50;100605.27;103731;275;585663;-68
2023/06/08 11:24:17;;;;;;;3.30;2.90;;;;;;;29.48;28.68;100603.05;104116;275;39051;-69
2023/06/08 11:26:53;;;;;;;4.60;2.80;;;;;;;29.36;28.75;100601.14;104015;275;174309;-69
2023/06/08 11:29:28;;;;;;;4.10;2.90;;;;;;;29.16;29.14;100604.22;104138;275;38475;-69
2023/06/08 11:32:14;;;;;;;4.30;3.10;;;;;;;29.17;29.48;100599.98;104093;275;38581;-68
2023/06/08 11:34:49;;;;;;;5.70;3.00;;;;;;;29.14;29.39;100601.40;104161;275;38957;-68
2023/06/08 11:37:33;;;;;;;3.30;2.90;;;;;;;28.93;29.48;100590.23;104134;275;38808;-67
2023/06/08 11:40:14;;;;;;;5.90;3.30;;;;;;;28.91;29.65;100583.98;104138;275;39727;-68
2023/06/08 11:42:53;;;;;;;4.40;3.20;;;;;;;29.00;29.91;100584.09;104124;275;38911;-69
2023/06/08 11:45:32;;;;;;;5.00;3.00;;;;;;;29.04;29.82;100577.27;104161;275;38389;-67
2023/06/08 11:48:07;;;;;;;4.70;2.70;;;;;;;29.13;30.15;100575.43;104127;275;38351;-68
2023/06/08 11:50:49;;;;;;;4.50;3.10;;;;;;;29.21;30.02;100568.59;104171;275;39408;-72
2023/06/08 11:53:24;;;;;;;4.30;2.90;;;;;;;29.18;29.49;100570.70;104136;275;39238;-71
2023/06/08 11:56:05;;;;;;;6.50;3.30;;;;;;;29.10;29.56;100569.45;104186;275;38515;-68
2023/06/08 11:58:40;;;;;;;5.40;2.80;;;;;;;28.98;28.89;100569.74;104141;275;38880;-68
2023/06/08 12:01:14;;;;;;;4.30;2.90;;;;;;;28.86;29.00;100570.69;104134;275;39000;-72
2023/06/08 12:03:49;;;;;;;4.40;2.80;;;;;;;28.85;28.91;100571.56;104061;276;39422;-71
2023/06/08 12:06:27;;;;;;;4.60;2.80;;;;;;;28.81;29.31;100568.96;104160;275;38829;-69
2023/06/08 12:09:05;;;;;;;3.80;2.80;;;;;;;28.86;29.45;100566.79;104143;275;38522;-71